Time;durP1;ratioP1;P1;durP2;ratioP2;P2;SDS_P1;SDS_P2;PMS_P1;PMS_P2;Temp;Humidity;BMP_temperature;BMP_pressure;BME280_temperature;BME280_humidity;BME280_pressure;Samples;Min_cycle;Max_cycle;Signal;HPM_P1;HPM_P2
2022/03/16 00:02:04;;;;;;;0.17;0.17;;;;;;;9.43;61.40;102554.59;5091439;28;20051;-85
2022/03/16 00:04:30;;;;;;;0.03;0.03;;;;;;;9.40;60.68;102554.56;5093172;28;20029;-83
2022/03/16 00:06:57;;;;;;;0.40;0.40;;;;;;;9.36;61.35;102553.66;5094574;28;20046;-83
2022/03/16 00:09:23;;;;;;;0.00;0.00;;;;;;;9.34;60.81;102555.38;5096012;28;20157;-84
2022/03/16 00:11:49;;;;;;;0.10;0.10;;;;;;;9.32;60.33;102562.41;5098005;28;20042;-83
2022/03/16 00:14:16;;;;;;;0.10;0.10;;;;;;;9.28;60.76;102560.59;5092563;28;20036;-84
2022/03/16 00:16:42;;;;;;;0.03;0.03;;;;;;;9.26;60.79;102559.69;5108340;28;20112;-84
2022/03/16 00:19:08;;;;;;;0.10;0.10;;;;;;;9.20;61.56;102556.97;5095819;28;20028;-84
2022/03/16 00:21:34;;;;;;;0.10;0.10;;;;;;;9.19;61.85;102555.19;5104771;28;20093;-84
2022/03/16 00:24:01;;;;;;;0.63;0.63;;;;;;;9.17;62.46;102560.47;5091439;28;20516;-84
2022/03/16 00:26:28;;;;;;;0.00;0.00;;;;;;;9.14;62.28;102559.53;5097578;28;20055;-84
2022/03/16 00:28:54;;;;;;;0.10;0.10;;;;;;;9.09;63.06;102566.50;5098209;28;20035;-83
2022/03/16 00:31:21;;;;;;;0.35;0.35;;;;;;;9.01;63.07;102561.09;5099477;28;20023;-84
2022/03/16 00:33:47;;;;;;;0.10;0.10;;;;;;;8.95;62.94;102563.66;5098631;28;20194;-84
2022/03/16 00:36:13;;;;;;;0.90;0.90;;;;;;;8.87;62.60;102563.53;5097211;28;20030;-84
2022/03/16 00:38:39;;;;;;;0.10;0.10;;;;;;;8.83;62.06;102567.00;5086330;28;20040;-79
2022/03/16 00:41:07;;;;;;;0.20;0.20;;;;;;;8.78;62.31;102566.94;5082190;28;20074;-79
2022/03/16 00:43:34;;;;;;;0.10;0.10;;;;;;;8.72;63.24;102566.84;5075153;28;20136;-80
2022/03/16 00:46:00;;;;;;;0.13;0.13;;;;;;;8.66;62.78;102570.28;5078099;28;20028;-80
2022/03/16 00:48:27;;;;;;;0.10;0.10;;;;;;;8.61;62.32;102571.06;5082005;28;20028;-80
2022/03/16 00:50:53;;;;;;;0.85;0.85;;;;;;;8.54;62.78;102560.41;5078433;28;20037;-81
2022/03/16 00:53:19;;;;;;;0.10;0.10;;;;;;;8.51;62.78;102564.75;5085128;28;20103;-80
2022/03/16 00:55:45;;;;;;;0.45;0.45;;;;;;;8.48;62.56;102565.59;5081504;28;20040;-81
2022/03/16 00:58:11;;;;;;;2.28;0.70;;;;;;;8.46;62.43;102554.13;5082149;28;20039;-81
2022/03/16 01:00:37;;;;;;;0.00;0.00;;;;;;;8.43;62.69;102554.03;5081878;28;20044;-81
2022/03/16 01:03:03;;;;;;;0.10;0.10;;;;;;;8.37;61.95;102552.19;5089935;28;20043;-80
2022/03/16 01:05:29;;;;;;;0.10;0.10;;;;;;;8.37;62.81;102552.19;5081517;28;20024;-81
2022/03/16 01:07:56;;;;;;;0.30;0.30;;;;;;;8.36;62.45;102545.13;5081221;28;20050;-80
2022/03/16 01:10:22;;;;;;;0.10;0.10;;;;;;;8.35;62.51;102551.28;5080151;28;20032;-80
2022/03/16 01:12:48;;;;;;;0.10;0.10;;;;;;;8.33;62.88;102550.34;5080787;28;20536;-80
2022/03/16 01:15:14;;;;;;;0.00;0.00;;;;;;;8.31;62.76;102546.81;5084069;28;20040;-81
2022/03/16 01:17:40;;;;;;;0.20;0.20;;;;;;;8.31;62.52;102544.16;5081223;28;20184;-80
2022/03/16 01:20:07;;;;;;;0.10;0.10;;;;;;;8.31;62.57;102541.53;5079987;28;20036;-80
2022/03/16 01:22:33;;;;;;;0.10;0.10;;;;;;;8.29;62.70;102543.25;5077276;28;20498;-80
2022/03/16 01:24:59;;;;;;;0.15;0.15;;;;;;;8.30;63.06;102539.75;5077672;28;20032;-80
2022/03/16 01:27:26;;;;;;;0.20;0.20;;;;;;;8.29;62.58;102545.88;5075069;28;20032;-81
2022/03/16 01:29:52;;;;;;;0.28;0.28;;;;;;;8.29;63.12;102537.06;5076075;28;20044;-81
2022/03/16 01:32:18;;;;;;;0.10;0.10;;;;;;;8.25;62.98;102530.88;5076832;28;20051;-80
2022/03/16 01:34:44;;;;;;;0.40;0.40;;;;;;;8.22;63.52;102536.97;5078595;28;20285;-80
2022/03/16 01:37:10;;;;;;;0.10;0.10;;;;;;;8.19;63.12;102528.13;5082115;28;20036;-81
2022/03/16 01:39:37;;;;;;;0.00;0.00;;;;;;;8.16;62.80;102525.41;5081757;28;20440;-81
2022/03/16 01:42:03;;;;;;;0.10;0.10;;;;;;;8.13;63.71;102528.00;5078571;28;20524;-80
2022/03/16 01:44:46;;;;;;;0.63;0.63;;;;;;;8.16;63.16;102531.59;5078762;28;20093;-80
2022/03/16 01:47:14;;;;;;;0.20;0.20;;;;;;;8.08;63.87;102528.78;5075461;28;20080;-81
2022/03/16 01:49:41;;;;;;;0.15;0.15;;;;;;;8.07;62.78;102526.13;5076092;28;20123;-81
2022/03/16 01:52:09;;;;;;;0.47;0.47;;;;;;;8.04;64.00;102537.53;5076986;28;20036;-81
2022/03/16 01:54:36;;;;;;;0.52;0.52;;;;;;;8.03;63.13;102533.09;5075202;28;20119;-81
2022/03/16 01:57:02;;;;;;;0.30;0.30;;;;;;;8.03;62.79;102545.44;5078547;28;20094;-81
2022/03/16 01:59:30;;;;;;;0.43;0.43;;;;;;;8.02;63.58;102536.59;5075491;28;20117;-81
2022/03/16 02:01:57;;;;;;;0.15;0.15;;;;;;;8.01;63.65;102532.22;5076469;28;20033;-81
2022/03/16 02:04:23;;;;;;;0.03;0.03;;;;;;;7.98;63.90;102529.50;5077356;28;20381;-80
2022/03/16 02:06:50;;;;;;;0.10;0.10;;;;;;;7.97;64.06;102527.72;5077044;28;20452;-80
2022/03/16 02:09:16;;;;;;;0.45;0.45;;;;;;;7.94;64.58;102519.75;5076263;28;20054;-80
2022/03/16 02:11:42;;;;;;;0.10;0.10;;;;;;;7.94;64.05;102523.28;5074466;28;20039;-81
2022/03/16 02:14:08;;;;;;;0.10;0.10;;;;;;;7.93;63.87;102517.97;5080096;28;20516;-80
2022/03/16 02:16:35;;;;;;;0.10;0.10;;;;;;;7.91;63.79;102515.31;5080926;28;20037;-80
2022/03/16 02:19:01;;;;;;;0.25;0.25;;;;;;;7.91;63.77;102514.41;5077930;28;20033;-80
2022/03/16 02:21:30;;;;;;;0.10;0.10;;;;;;;7.91;63.53;102517.06;5076494;28;20092;-81
2022/03/16 02:23:57;;;;;;;0.85;0.47;;;;;;;7.88;64.08;102503.81;5075066;28;20024;-80
2022/03/16 02:26:26;;;;;;;1.52;1.42;;;;;;;7.89;64.04;102506.47;5075484;28;20029;-80
2022/03/16 02:28:53;;;;;;;0.25;0.25;;;;;;;7.87;64.09;102496.75;5076627;28;20032;-80
2022/03/16 02:31:20;;;;;;;0.40;0.40;;;;;;;7.84;64.42;102502.88;5074263;28;20073;-80
2022/03/16 02:33:46;;;;;;;0.10;0.10;;;;;;;7.83;63.90;102497.56;5075340;28;20455;-80
2022/03/16 02:36:12;;;;;;;0.20;0.20;;;;;;;7.81;64.24;102486.09;5074920;28;20050;-81
2022/03/16 02:38:38;;;;;;;0.30;0.30;;;;;;;7.77;64.27;102490.41;5059285;22;20045;-80
2022/03/16 02:41:04;;;;;;;0.10;0.10;;;;;;;7.72;63.94;102492.97;5026422;28;20506;-80
2022/03/16 02:43:31;;;;;;;0.35;0.35;;;;;;;7.68;64.05;102496.41;5025392;28;20084;-80
2022/03/16 02:45:57;;;;;;;0.10;0.10;;;;;;;7.67;64.03;102489.34;5030105;28;20484;-80
2022/03/16 02:48:23;;;;;;;0.10;0.10;;;;;;;7.66;63.96;102492.84;5030156;28;20029;-80
2022/03/16 02:50:49;;;;;;;0.10;0.10;;;;;;;7.65;63.92;102485.81;5026399;28;20041;-80
2022/03/16 02:53:16;;;;;;;0.30;0.30;;;;;;;7.68;64.35;102490.25;5030414;28;20072;-80
2022/03/16 02:55:44;;;;;;;0.10;0.10;;;;;;;7.69;63.73;102492.00;5032577;28;20030;-80
2022/03/16 02:58:20;;;;;;;0.00;0.00;;;;;;;7.67;63.95;102489.34;5035087;28;20037;-80
2022/03/16 03:00:46;;;;;;;0.52;0.52;;;;;;;7.68;64.06;102496.41;5017541;28;20038;-79
2022/03/16 03:03:13;;;;;;;0.10;0.10;;;;;;;7.67;64.26;102502.53;5025540;28;20045;-80
2022/03/16 03:05:39;;;;;;;0.85;0.85;;;;;;;7.68;63.49;102499.06;5038614;28;20156;-80
2022/03/16 03:08:05;;;;;;;0.10;0.10;;;;;;;7.71;63.80;102501.75;5025388;28;20029;-80
2022/03/16 03:10:31;;;;;;;0.10;0.10;;;;;;;7.72;63.63;102502.63;5036866;28;20158;-80
2022/03/16 03:12:58;;;;;;;0.15;0.15;;;;;;;7.70;64.03;102497.34;5003273;28;20112;-80
2022/03/16 03:15:24;;;;;;;6.20;1.20;;;;;;;7.68;63.92;102491.13;5039979;28;20047;-79
2022/03/16 03:17:50;;;;;;;0.10;0.10;;;;;;;7.67;64.22;102491.13;5044608;28;20044;-80
2022/03/16 03:20:16;;;;;;;0.08;0.08;;;;;;;7.66;63.39;102487.56;5040300;28;20053;-78
2022/03/16 03:22:42;;;;;;;0.10;0.10;;;;;;;7.64;63.69;102478.75;5031224;28;20550;-78
2022/03/16 03:25:12;;;;;;;0.25;0.25;;;;;;;7.65;64.09;102475.28;5028946;28;20393;-80
2022/03/16 03:27:38;;;;;;;0.98;0.90;;;;;;;7.62;64.22;102480.47;5028044;28;20036;-78
2022/03/16 03:30:06;;;;;;;0.10;0.10;;;;;;;7.59;63.96;102476.03;5027811;28;20060;-80
2022/03/16 03:32:32;;;;;;;1.05;0.95;;;;;;;7.57;63.78;102474.22;5034727;28;20506;-80
2022/03/16 03:34:58;;;;;;;0.20;0.20;;;;;;;7.54;64.33;102466.25;5032370;28;20506;-80
2022/03/16 03:37:28;;;;;;;0.20;0.20;;;;;;;7.51;64.15;102466.19;5034690;28;20111;-80
2022/03/16 03:39:54;;;;;;;0.85;0.82;;;;;;;7.49;64.74;102467.91;5026614;28;20410;-80
2022/03/16 03:42:21;;;;;;;1.55;0.50;;;;;;;7.47;64.70;102472.28;5026563;28;20030;-80
2022/03/16 03:44:47;;;;;;;0.90;0.90;;;;;;;7.44;64.71;102471.34;5035768;28;20038;-78
2022/03/16 03:47:14;;;;;;;0.22;0.22;;;;;;;7.42;64.43;102467.78;5033678;28;20022;-77
2022/03/16 03:49:42;;;;;;;1.00;1.00;;;;;;;7.41;64.30;102476.59;5033286;28;20095;-78
2022/03/16 03:52:09;;;;;;;0.10;0.10;;;;;;;7.40;64.58;102479.16;5038418;28;20032;-78
2022/03/16 03:54:35;;;;;;;0.20;0.20;;;;;;;7.38;64.70;102476.50;5034631;28;20503;-77
2022/03/16 03:57:02;;;;;;;0.60;0.60;;;;;;;7.39;64.29;102475.66;5042887;28;20025;-77
2022/03/16 03:59:28;;;;;;;0.10;0.10;;;;;;;7.39;64.72;102475.66;5034720;28;20033;-77
2022/03/16 04:01:55;;;;;;;0.08;0.08;;;;;;;7.41;64.63;102476.59;5030111;28;20035;-78
2022/03/16 04:04:21;;;;;;;0.10;0.10;;;;;;;7.45;64.34;102481.06;5028979;28;20037;-78
2022/03/16 04:06:47;;;;;;;0.47;0.43;;;;;;;7.47;64.18;102480.19;5038257;28;20045;-78
2022/03/16 04:09:13;;;;;;;0.22;0.22;;;;;;;7.45;64.43;102473.13;5038273;28;20547;-79
2022/03/16 04:11:40;;;;;;;0.10;0.10;;;;;;;7.47;64.85;102470.53;5031522;28;20032;-79
2022/03/16 04:14:06;;;;;;;0.10;0.10;;;;;;;7.49;64.64;102473.19;5038351;28;20398;-79
2022/03/16 04:16:32;;;;;;;0.10;0.10;;;;;;;7.50;64.54;102470.59;5034015;28;20087;-78
2022/03/16 04:18:59;;;;;;;0.22;0.22;;;;;;;7.51;64.78;102476.75;5039570;28;20037;-79
2022/03/16 04:21:25;;;;;;;0.90;0.90;;;;;;;7.52;64.64;102475.91;5038417;28;20462;-78
2022/03/16 04:23:51;;;;;;;0.22;0.22;;;;;;;7.51;64.59;102472.34;5039501;28;20021;-79
2022/03/16 04:26:18;;;;;;;0.03;0.03;;;;;;;7.50;64.85;102477.59;5033889;28;20509;-78
2022/03/16 04:28:45;;;;;;;0.40;0.40;;;;;;;7.49;64.43;102478.47;5029331;28;20168;-79
2022/03/16 04:31:12;;;;;;;0.65;0.65;;;;;;;7.47;64.70;102480.19;5039119;28;20036;-79
2022/03/16 04:33:38;;;;;;;1.45;0.77;;;;;;;7.45;64.22;102481.06;5031402;28;20042;-79
2022/03/16 04:36:06;;;;;;;0.10;0.10;;;;;;;7.47;64.22;102488.09;5023679;28;20104;-79
2022/03/16 04:38:33;;;;;;;1.17;1.17;;;;;;;7.47;64.39;102485.47;5030723;28;20037;-79
2022/03/16 04:41:02;;;;;;;0.20;0.20;;;;;;;7.49;64.91;102476.72;5035878;28;20626;-78
2022/03/16 04:43:28;;;;;;;0.10;0.10;;;;;;;7.48;64.66;102479.31;5029972;28;20525;-79
2022/03/16 04:45:54;;;;;;;0.10;0.10;;;;;;;7.46;64.63;102484.56;5028047;28;20042;-78
2022/03/16 04:48:20;;;;;;;0.80;0.80;;;;;;;7.45;65.01;102482.78;5034579;28;20048;-79
2022/03/16 04:50:46;;;;;;;0.15;0.15;;;;;;;7.42;64.29;102483.59;5030110;28;20066;-79
2022/03/16 04:53:12;;;;;;;0.35;0.35;;;;;;;7.41;64.29;102470.41;5036394;28;20079;-80
2022/03/16 04:55:38;;;;;;;0.32;0.32;;;;;;;7.39;64.43;102473.03;5034002;28;20057;-79
2022/03/16 04:58:07;;;;;;;0.85;0.85;;;;;;;7.36;64.94;102472.94;5036583;28;20088;-78
2022/03/16 05:00:36;;;;;;;0.10;0.10;;;;;;;7.35;65.09;102468.56;5031859;28;20061;-79
2022/03/16 05:03:03;;;;;;;0.10;0.10;;;;;;;7.33;64.69;102472.91;5034759;28;20176;-79
2022/03/16 05:05:30;;;;;;;0.10;0.10;;;;;;;7.30;64.96;102467.53;5031118;28;20029;-80
2022/03/16 05:07:56;;;;;;;0.10;0.10;;;;;;;7.27;65.12;102465.75;5035312;28;20491;-79
2022/03/16 05:10:23;;;;;;;0.30;0.30;;;;;;;7.27;64.71;102464.88;5032036;28;20045;-79
2022/03/16 05:12:49;;;;;;;0.00;0.00;;;;;;;7.25;65.04;102471.84;5027765;28;20037;-80
2022/03/16 05:15:17;;;;;;;0.10;0.10;;;;;;;7.22;64.79;102464.75;5030481;28;20029;-79
2022/03/16 05:17:44;;;;;;;0.10;0.10;;;;;;;7.17;65.44;102463.78;5035102;28;20029;-78
2022/03/16 05:20:12;;;;;;;0.10;0.10;;;;;;;7.13;65.45;102462.84;5032996;28;20030;-79
2022/03/16 05:22:53;;;;;;;2.05;1.95;;;;;;;7.23;65.04;102463.03;5028669;28;20033;-79
2022/03/16 05:25:26;;;;;;;0.10;0.10;;;;;;;7.13;65.47;102465.47;5028468;28;20042;-79
2022/03/16 05:27:53;;;;;;;0.10;0.10;;;;;;;7.15;65.15;102467.25;5031882;28;20588;-78
2022/03/16 05:30:22;;;;;;;0.55;0.55;;;;;;;7.13;65.21;102465.47;5030920;28;20025;-79
2022/03/16 05:32:51;;;;;;;0.10;0.10;;;;;;;7.11;64.93;102461.91;5030132;28;20034;-78
2022/03/16 05:35:17;;;;;;;0.10;0.10;;;;;;;7.08;65.62;102467.13;5029435;28;20387;-79
2022/03/16 05:37:43;;;;;;;0.38;0.38;;;;;;;7.09;65.42;102468.00;5028998;28;20033;-79
2022/03/16 05:40:10;;;;;;;0.25;0.25;;;;;;;7.04;65.48;102465.28;5021159;28;20041;-79
2022/03/16 05:42:36;;;;;;;1.75;1.48;;;;;;;7.06;65.02;102467.94;5025629;28;20394;-78
2022/03/16 05:45:03;;;;;;;0.38;0.38;;;;;;;7.03;66.01;102466.16;5028525;28;20040;-78
2022/03/16 05:47:30;;;;;;;0.10;0.10;;;;;;;7.04;65.05;102470.56;5021625;28;20268;-79
2022/03/16 05:49:56;;;;;;;0.10;0.10;;;;;;;7.05;65.74;102461.81;5041478;28;20082;-78
2022/03/16 05:52:23;;;;;;;0.25;0.25;;;;;;;7.06;65.83;102463.56;5032784;28;20060;-78
2022/03/16 05:54:51;;;;;;;0.22;0.22;;;;;;;7.05;65.67;102477.63;5032694;28;20075;-78
2022/03/16 05:57:17;;;;;;;0.15;0.15;;;;;;;7.07;65.78;102473.25;5026903;28;20025;-79
2022/03/16 05:59:44;;;;;;;0.30;0.30;;;;;;;7.06;65.33;102467.94;5025175;28;20037;-79
2022/03/16 06:02:12;;;;;;;0.10;0.10;;;;;;;7.05;64.32;102472.34;5027329;28;20021;-78
2022/03/16 06:04:40;;;;;;;0.10;0.10;;;;;;;7.03;65.35;102466.16;5025579;28;20064;-78
2022/03/16 06:07:07;;;;;;;0.10;0.10;;;;;;;7.05;65.56;102467.09;5026401;28;20050;-79
2022/03/16 06:09:34;;;;;;;0.30;0.30;;;;;;;7.02;65.90;102467.00;5031192;28;20083;-80
2022/03/16 06:12:02;;;;;;;0.47;0.47;;;;;;;7.03;65.67;102475.78;5015801;28;20034;-80
2022/03/16 06:14:29;;;;;;;0.55;0.55;;;;;;;7.06;65.37;102468.81;5025745;28;20116;-80
2022/03/16 06:16:56;;;;;;;0.15;0.15;;;;;;;7.07;65.85;102470.63;5025071;28;20018;-78
2022/03/16 06:19:23;;;;;;;0.32;0.32;;;;;;;7.11;66.14;102456.63;5026525;28;20087;-79
2022/03/16 06:21:49;;;;;;;0.10;0.10;;;;;;;7.14;66.07;102466.38;5026418;28;20038;-78
2022/03/16 06:24:15;;;;;;;0.05;0.05;;;;;;;7.17;66.47;102465.53;5027014;28;20515;-79
2022/03/16 06:26:42;;;;;;;4.65;1.95;;;;;;;7.18;66.67;102467.28;5028307;28;20045;-80
2022/03/16 06:29:09;;;;;;;0.40;0.40;;;;;;;7.24;65.64;102462.16;5028811;28;20104;-80
2022/03/16 06:31:37;;;;;;;0.30;0.30;;;;;;;7.23;67.02;102460.41;5021044;28;20060;-80
2022/03/16 06:34:03;;;;;;;3.08;2.85;;;;;;;7.27;67.04;102472.78;5022320;28;20044;-79
2022/03/16 06:36:29;;;;;;;0.15;0.15;;;;;;;7.33;67.30;102469.34;5033049;28;20550;-80
2022/03/16 06:38:56;;;;;;;1.35;0.52;;;;;;;7.36;67.20;102469.44;5031263;28;20033;-78
2022/03/16 06:41:23;;;;;;;0.00;0.00;;;;;;;7.42;66.65;102470.44;5029841;28;20507;-80
2022/03/16 06:43:49;;;;;;;0.50;0.50;;;;;;;7.51;66.84;102474.09;5031385;28;20117;-80
2022/03/16 06:46:16;;;;;;;0.10;0.10;;;;;;;7.53;67.23;102475.03;5028136;28;20499;-78
2022/03/16 06:48:42;;;;;;;1.58;1.55;;;;;;;7.58;66.82;102481.28;5021967;28;20103;-80
2022/03/16 06:51:08;;;;;;;0.10;0.10;;;;;;;7.58;66.70;102463.69;5020891;28;20030;-79
2022/03/16 06:53:35;;;;;;;0.38;0.38;;;;;;;7.59;67.03;102472.53;5020803;28;20040;-78
2022/03/16 06:56:03;;;;;;;0.20;0.20;;;;;;;7.63;66.91;102461.16;5018863;28;20117;-79
2022/03/16 06:58:30;;;;;;;2.35;0.70;;;;;;;7.63;66.82;102457.59;5019639;28;20095;-80
2022/03/16 07:00:56;;;;;;;0.20;0.20;;;;;;;7.73;66.95;102443.75;5013042;28;20080;-79
2022/03/16 07:03:23;;;;;;;0.63;0.63;;;;;;;7.75;67.19;102445.53;5017869;28;20045;-80
2022/03/16 07:05:50;;;;;;;0.28;0.28;;;;;;;7.81;67.30;102443.88;5027688;28;20071;-80
2022/03/16 07:08:16;;;;;;;0.10;0.10;;;;;;;7.85;66.98;102445.69;5024812;28;20056;-78
2022/03/16 07:10:44;;;;;;;0.30;0.30;;;;;;;7.91;66.88;102429.97;5023438;28;20033;-78
2022/03/16 07:13:11;;;;;;;0.10;0.10;;;;;;;7.99;66.68;102438.91;5024657;28;20040;-79
2022/03/16 07:15:39;;;;;;;1.58;1.55;;;;;;;8.08;67.10;102433.75;5031169;28;20057;-80
2022/03/16 07:18:05;;;;;;;2.40;2.20;;;;;;;8.14;66.50;102426.78;5032510;28;20057;-79
2022/03/16 07:20:33;;;;;;;0.15;0.15;;;;;;;8.22;66.53;102441.00;5031746;28;20124;-80
2022/03/16 07:23:17;;;;;;;1.20;1.20;;;;;;;8.31;65.84;102430.59;5031457;28;20135;-80
2022/03/16 07:25:47;;;;;;;1.20;1.10;;;;;;;8.35;65.99;102427.13;5027529;28;20469;-79
2022/03/16 07:28:14;;;;;;;4.20;2.10;;;;;;;8.39;66.08;102423.66;5032202;28;20048;-80
2022/03/16 07:30:42;;;;;;;0.32;0.32;;;;;;;8.51;66.23;102432.66;5032411;28;20033;-79
2022/03/16 07:33:09;;;;;;;0.10;0.10;;;;;;;8.52;65.95;102421.22;5033756;28;20487;-78
2022/03/16 07:35:36;;;;;;;0.10;0.10;;;;;;;8.58;65.37;102426.59;5023960;28;20038;-79
2022/03/16 07:38:03;;;;;;;1.20;0.50;;;;;;;8.71;65.37;102427.66;5031582;28;20087;-78
2022/03/16 07:40:31;;;;;;;0.10;0.10;;;;;;;8.83;65.21;102424.28;5028947;28;20509;-78
2022/03/16 07:42:57;;;;;;;0.00;0.00;;;;;;;8.84;65.30;102423.44;5030711;28;20060;-78
2022/03/16 07:45:24;;;;;;;0.10;0.10;;;;;;;8.91;65.29;102412.06;5025587;28;20390;-78
2022/03/16 07:47:56;;;;;;;0.00;0.00;;;;;;;9.03;65.30;102417.50;5032996;28;20029;-78
2022/03/16 07:50:23;;;;;;;0.52;0.52;;;;;;;9.17;64.98;102424.69;5033936;28;20040;-78
2022/03/16 07:52:49;;;;;;;0.55;0.55;;;;;;;9.20;65.01;102424.72;5032317;28;20033;-78
2022/03/16 07:55:15;;;;;;;0.10;0.10;;;;;;;9.30;64.39;102417.78;5032977;28;20072;-77
2022/03/16 07:57:43;;;;;;;0.30;0.30;;;;;;;9.31;64.46;102412.50;5034904;28;20548;-78
2022/03/16 08:00:12;;;;;;;0.10;0.10;;;;;;;9.44;64.00;102407.34;5040398;28;20083;-77
2022/03/16 08:02:39;;;;;;;0.28;0.28;;;;;;;9.54;63.56;102414.50;5038234;28;20036;-79
2022/03/16 08:05:06;;;;;;;0.10;0.10;;;;;;;9.65;63.40;102414.59;5030605;28;20032;-76
2022/03/16 08:07:32;;;;;;;1.55;0.80;;;;;;;9.72;63.27;102413.78;5031512;28;20056;-77
2022/03/16 08:09:59;;;;;;;0.10;0.10;;;;;;;9.75;62.85;102408.50;5033699;28;20025;-83
2022/03/16 08:12:25;;;;;;;0.43;0.43;;;;;;;9.87;62.53;102413.03;5032496;28;20047;-77
2022/03/16 08:14:52;;;;;;;0.73;0.73;;;;;;;9.99;62.75;102420.16;5033653;28;20403;-76
2022/03/16 08:17:18;;;;;;;0.13;0.13;;;;;;;10.02;62.38;102422.84;5015576;28;20022;-78
2022/03/16 08:19:45;;;;;;;0.20;0.20;;;;;;;10.03;61.75;102432.56;5015647;28;20039;-79
2022/03/16 08:22:11;;;;;;;0.40;0.40;;;;;;;10.24;61.69;102442.41;5024841;28;20120;-79
2022/03/16 08:24:37;;;;;;;0.10;0.10;;;;;;;10.24;61.59;102442.41;5034921;28;20056;-78
2022/03/16 08:27:04;;;;;;;0.10;0.10;;;;;;;10.31;61.41;102446.00;5032607;28;20465;-77
2022/03/16 08:29:30;;;;;;;1.00;1.00;;;;;;;10.42;60.97;102448.75;5033159;28;20036;-78
2022/03/16 08:31:58;;;;;;;0.10;0.10;;;;;;;10.47;61.19;102447.03;5032808;28;20370;-79
2022/03/16 08:34:24;;;;;;;0.28;0.28;;;;;;;10.50;60.78;102447.03;5032846;28;20029;-77
2022/03/16 08:36:51;;;;;;;0.10;0.10;;;;;;;10.61;60.10;102442.69;5033391;28;20030;-77
2022/03/16 08:39:20;;;;;;;1.90;1.35;;;;;;;10.68;60.09;102435.69;5074242;22;20052;-84
2022/03/16 08:41:46;;;;;;;0.00;0.00;;;;;;;10.85;60.25;102433.09;5059353;28;20096;-82
2022/03/16 08:44:12;;;;;;;1.83;1.55;;;;;;;10.93;59.94;102433.09;5056648;28;20044;-82
2022/03/16 08:46:38;;;;;;;0.85;0.85;;;;;;;11.07;59.63;102442.03;5048026;28;20097;-82
2022/03/16 08:49:04;;;;;;;0.30;0.30;;;;;;;11.04;58.74;102433.16;5062072;28;20032;-83
2022/03/16 08:51:30;;;;;;;4.15;0.55;;;;;;;11.17;59.04;102443.81;5058570;28;20025;-85
2022/03/16 08:53:56;;;;;;;1.25;0.70;;;;;;;11.22;58.38;102438.53;5059091;28;20092;-80
2022/03/16 08:56:23;;;;;;;0.25;0.25;;;;;;;11.23;58.72;102435.00;5060527;28;20056;-82
2022/03/16 08:58:49;;;;;;;0.20;0.20;;;;;;;11.30;57.78;102428.84;5061432;28;20036;-83
2022/03/16 09:01:15;;;;;;;0.10;0.10;;;;;;;11.39;58.30;102427.97;5061350;28;20068;-84
2022/03/16 09:03:41;;;;;;;1.52;1.42;;;;;;;11.50;58.38;102420.00;5057905;28;20515;-81
2022/03/16 09:06:08;;;;;;;0.35;0.35;;;;;;;11.58;57.94;102414.72;5059401;28;20033;-83
2022/03/16 09:08:34;;;;;;;2.55;1.38;;;;;;;11.73;57.40;102411.19;5057599;28;20040;-79
2022/03/16 09:11:01;;;;;;;0.35;0.35;;;;;;;11.87;57.67;102401.44;5051194;28;20059;-80
2022/03/16 09:13:27;;;;;;;0.90;0.38;;;;;;;11.93;57.01;102396.13;5048653;28;20021;-84
2022/03/16 09:15:53;;;;;;;0.70;0.70;;;;;;;11.98;55.93;102388.19;5053852;28;20381;-85
2022/03/16 09:18:19;;;;;;;0.65;0.65;;;;;;;11.99;55.78;102395.28;5054008;28;20040;-82
2022/03/16 09:20:46;;;;;;;0.15;0.15;;;;;;;12.14;55.60;102391.72;5054469;28;20036;-80
2022/03/16 09:23:13;;;;;;;0.95;0.52;;;;;;;12.25;55.92;102389.94;5056921;28;20044;-82
2022/03/16 09:25:41;;;;;;;0.08;0.08;;;;;;;12.26;55.23;102388.13;5057301;28;20037;-84
2022/03/16 09:28:08;;;;;;;0.08;0.08;;;;;;;12.36;55.18;102389.00;5057029;28;20055;-86
2022/03/16 09:30:35;;;;;;;0.55;0.55;;;;;;;12.39;55.43;102381.91;5058316;28;20029;-84
2022/03/16 09:33:01;;;;;;;10.50;0.90;;;;;;;12.52;54.86;102380.09;5055467;28;20163;-81
2022/03/16 09:35:28;;;;;;;0.10;0.10;;;;;;;12.62;53.98;102381.84;5056983;28;20078;-85
2022/03/16 09:37:54;;;;;;;0.63;0.63;;;;;;;12.68;54.42;102380.03;5057528;28;20025;-82
2022/03/16 09:40:22;;;;;;;3.30;1.95;;;;;;;12.78;53.91;102377.34;5056188;28;20048;-86
2022/03/16 09:42:48;;;;;;;0.10;0.10;;;;;;;12.89;53.49;102379.94;5055712;28;20116;-80
2022/03/16 09:45:19;;;;;;;0.28;0.28;;;;;;;13.05;53.87;102390.50;5056650;28;20080;-81
2022/03/16 09:47:46;;;;;;;0.00;0.00;;;;;;;13.14;53.05;102377.13;5058149;28;20116;-85
2022/03/16 09:50:13;;;;;;;0.10;0.10;;;;;;;13.17;53.48;102373.56;5058035;28;20441;-82
2022/03/16 09:52:40;;;;;;;0.10;0.10;;;;;;;13.31;53.56;102376.13;5055707;28;20129;-82
2022/03/16 09:55:07;;;;;;;0.93;0.52;;;;;;;13.39;53.11;102364.56;5056073;28;20033;-82
2022/03/16 09:57:33;;;;;;;0.05;0.05;;;;;;;13.54;53.31;102362.69;5052789;28;20037;-81
2022/03/16 10:00:02;;;;;;;1.35;0.38;;;;;;;13.58;51.97;102368.00;5042154;28;20034;-83
2022/03/16 10:02:28;;;;;;;0.10;0.10;;;;;;;13.71;52.63;102367.91;5036795;28;20030;-83
2022/03/16 10:04:55;;;;;;;0.80;0.80;;;;;;;13.83;51.83;102369.56;5037154;28;20396;-86
2022/03/16 10:07:29;;;;;;;0.22;0.22;;;;;;;14.00;51.14;102377.41;5057254;28;20040;-83
2022/03/16 10:13:13;;;;;;;5.07;1.13;;;;;;;14.26;51.32;102378.94;5057388;28;20079;-84
2022/03/16 10:15:29;;;;;;;0.65;0.65;;;;;;;14.33;49.64;102369.94;5058064;28;20096;-83
2022/03/16 10:20:35;;;;;;;0.17;0.17;;;;;;;14.43;49.27;102368.94;5120735;27;1189318;-81
2022/03/16 10:23:07;;;;;;;0.63;0.63;;;;;;;14.56;49.70;102362.53;5134930;27;20032;-80
2022/03/16 10:25:37;;;;;;;0.10;0.10;;;;;;;14.58;49.21;102354.53;5135221;27;20031;-81
2022/03/16 10:33:30;;;;;;;0.68;0.68;;;;;;;14.68;49.83;102356.22;5010620;28;20656;-80
2022/03/16 10:36:13;;;;;;;0.30;0.30;;;;;;;14.86;50.12;102360.41;5010871;28;20033;-80
2022/03/16 10:49:48;;;;;;;0.00;0.00;;;;;;;15.54;48.64;102334.50;5087561;27;1187550;-80
2022/03/16 10:52:18;;;;;;;0.08;0.08;;;;;;;15.76;47.96;102336.78;5127799;28;20480;-80
2022/03/16 10:54:46;;;;;;;0.30;0.30;;;;;;;15.82;47.12;102334.88;5132929;28;20035;-79
2022/03/16 10:57:13;;;;;;;1.75;0.60;;;;;;;15.87;47.13;102328.59;5132949;28;20035;-80
2022/03/16 10:59:42;;;;;;;0.30;0.30;;;;;;;16.00;47.18;102330.16;5133696;28;20027;-80
2022/03/16 11:02:13;;;;;;;1.85;0.80;;;;;;;16.16;47.06;102330.69;5128086;28;20031;-79
2022/03/16 11:04:42;;;;;;;0.22;0.22;;;;;;;16.26;46.98;102336.75;5112936;28;20027;-80
2022/03/16 11:07:08;;;;;;;0.98;0.93;;;;;;;16.38;46.68;102325.81;5112322;28;20095;-79
2022/03/16 11:09:36;;;;;;;0.05;0.05;;;;;;;16.47;45.79;102320.28;5112443;28;20039;-79
2022/03/16 11:14:51;;;;;;;1.23;0.70;;;;;;;16.29;45.60;102312.63;5131448;28;20046;-80
2022/03/16 11:17:18;;;;;;;0.20;0.20;;;;;;;16.28;46.21;102324.25;5130913;27;20056;-81
2022/03/16 11:19:47;;;;;;;2.08;1.65;;;;;;;16.18;46.49;102323.53;5132496;27;20030;-81
2022/03/16 11:22:24;;;;;;;3.63;0.55;;;;;;;16.27;46.61;102318.00;5130926;27;20031;-81
2022/03/16 11:24:58;;;;;;;0.15;0.15;;;;;;;16.25;46.60;102325.19;5127001;27;20024;-79
2022/03/16 11:32:46;;;;;;;0.13;0.13;;;;;;;16.60;46.33;102341.44;5103399;27;1196121;-81
2022/03/16 11:35:16;;;;;;;0.00;0.00;;;;;;;16.71;46.58;102341.16;5112735;28;20498;-81
2022/03/16 11:37:51;;;;;;;0.10;0.10;;;;;;;16.68;46.12;102333.22;5113176;28;20122;-80
2022/03/16 11:40:23;;;;;;;0.30;0.30;;;;;;;16.81;46.30;102329.38;5112489;28;20055;-81
2022/03/16 11:45:43;;;;;;;0.40;0.40;;;;;;;16.90;45.79;102330.97;5074546;27;20461;-81
2022/03/16 11:56:29;;;;;;;0.55;0.55;;;;;;;17.11;45.43;102318.91;5072834;28;20397;-83
2022/03/16 11:59:02;;;;;;;0.73;0.73;;;;;;;17.32;45.46;102314.81;5063878;28;20037;-83
2022/03/16 12:01:52;;;;;;;0.47;0.47;;;;;;;17.58;44.89;102314.16;5051864;28;20029;-84
2022/03/16 12:04:33;;;;;;;0.28;0.28;;;;;;;17.67;44.57;102313.03;5031967;28;20095;-84
2022/03/16 12:09:50;;;;;;;0.20;0.20;;;;;;;17.58;44.64;102321.28;5123586;27;20394;-83
2022/03/16 12:17:37;;;;;;;0.00;0.00;;;;;;;17.21;44.53;102322.22;5133567;27;1215586;-84
2022/03/16 12:20:15;;;;;;;0.85;0.55;;;;;;;17.21;44.94;102311.50;5149759;27;20105;-83
2022/03/16 12:22:47;;;;;;;0.40;0.40;;;;;;;17.16;45.19;102308.06;5136603;28;20034;-85